sensor_id;sensor_type;location;lat;lon;timestamp;temperature;humidity
2945;DHT22;1482;51.398;7.128;2023-11-21T00:01:50;8.70;99.90
2945;DHT22;1482;51.398;7.128;2023-11-21T00:04:17;8.70;99.90
2945;DHT22;1482;51.398;7.128;2023-11-21T00:06:42;8.70;1.00
2945;DHT22;1482;51.398;7.128;2023-11-21T00:09:08;8.70;1.00
2945;DHT22;1482;51.398;7.128;2023-11-21T00:11:35;8.70;1.00
2945;DHT22;1482;51.398;7.128;2023-11-21T00:14:00;8.70;1.00
2945;DHT22;1482;51.398;7.128;2023-11-21T00:16:26;8.70;1.00
2945;DHT22;1482;51.398;7.128;2023-11-21T00:18:51;8.80;1.00
2945;DHT22;1482;51.398;7.128;2023-11-21T00:21:17;8.80;1.00
2945;DHT22;1482;51.398;7.128;2023-11-21T00:23:42;8.90;1.00
2945;DHT22;1482;51.398;7.128;2023-11-21T00:26:08;8.90;1.00
2945;DHT22;1482;51.398;7.128;2023-11-21T00:28:33;8.90;1.00
2945;DHT22;1482;51.398;7.128;2023-11-21T00:30:59;8.90;1.00
2945;DHT22;1482;51.398;7.128;2023-11-21T00:33:24;9.00;1.00
2945;DHT22;1482;51.398;7.128;2023-11-21T00:35:50;9.00;1.00
2945;DHT22;1482;51.398;7.128;2023-11-21T00:38:16;9.00;1.00
2945;DHT22;1482;51.398;7.128;2023-11-21T00:40:45;9.00;1.00
2945;DHT22;1482;51.398;7.128;2023-11-21T00:43:10;9.00;1.00
2945;DHT22;1482;51.398;7.128;2023-11-21T00:45:36;9.00;1.00
2945;DHT22;1482;51.398;7.128;2023-11-21T00:48:02;9.00;1.00
2945;DHT22;1482;51.398;7.128;2023-11-21T00:50:30;9.10;1.00
2945;DHT22;1482;51.398;7.128;2023-11-21T00:52:55;9.10;1.00
2945;DHT22;1482;51.398;7.128;2023-11-21T00:55:21;9.10;1.00
2945;DHT22;1482;51.398;7.128;2023-11-21T00:57:47;9.10;1.00
2945;DHT22;1482;51.398;7.128;2023-11-21T01:00:13;9.20;1.00
2945;DHT22;1482;51.398;7.128;2023-11-21T01:02:45;9.20;1.00
2945;DHT22;1482;51.398;7.128;2023-11-21T01:05:12;9.20;1.00
2945;DHT22;1482;51.398;7.128;2023-11-21T01:07:37;9.20;1.00
2945;DHT22;1482;51.398;7.128;2023-11-21T01:10:04;9.20;1.00
2945;DHT22;1482;51.398;7.128;2023-11-21T01:12:37;9.20;1.00
2945;DHT22;1482;51.398;7.128;2023-11-21T01:15:07;9.20;1.00
2945;DHT22;1482;51.398;7.128;2023-11-21T01:17:33;9.20;1.00
2945;DHT22;1482;51.398;7.128;2023-11-21T01:19:59;9.20;1.00
2945;DHT22;1482;51.398;7.128;2023-11-21T01:22:25;9.20;1.00
2945;DHT22;1482;51.398;7.128;2023-11-21T01:24:53;9.20;1.00
2945;DHT22;1482;51.398;7.128;2023-11-21T01:27:18;9.20;1.00
2945;DHT22;1482;51.398;7.128;2023-11-21T01:29:44;9.20;1.00
2945;DHT22;1482;51.398;7.128;2023-11-21T01:32:10;9.20;1.00
2945;DHT22;1482;51.398;7.128;2023-11-21T01:34:36;9.20;1.00
2945;DHT22;1482;51.398;7.128;2023-11-21T01:37:02;9.20;1.00
2945;DHT22;1482;51.398;7.128;2023-11-21T01:39:30;9.20;1.00
2945;DHT22;1482;51.398;7.128;2023-11-21T01:41:55;9.20;1.00
2945;DHT22;1482;51.398;7.128;2023-11-21T01:44:24;9.10;1.00
2945;DHT22;1482;51.398;7.128;2023-11-21T01:46:50;9.10;1.00
2945;DHT22;1482;51.398;7.128;2023-11-21T01:49:16;9.20;1.00
2945;DHT22;1482;51.398;7.128;2023-11-21T01:51:47;9.10;1.00
2945;DHT22;1482;51.398;7.128;2023-11-21T01:54:14;9.10;1.00
2945;DHT22;1482;51.398;7.128;2023-11-21T01:56:40;9.10;1.00
2945;DHT22;1482;51.398;7.128;2023-11-21T01:59:05;9.10;1.00
2945;DHT22;1482;51.398;7.128;2023-11-21T02:01:33;9.20;1.00
2945;DHT22;1482;51.398;7.128;2023-11-21T02:03:58;9.10;1.00
2945;DHT22;1482;51.398;7.128;2023-11-21T02:06:24;9.10;1.00
2945;DHT22;1482;51.398;7.128;2023-11-21T02:08:49;9.10;1.00
2945;DHT22;1482;51.398;7.128;2023-11-21T02:11:15;9.10;1.00
2945;DHT22;1482;51.398;7.128;2023-11-21T02:13:41;9.10;1.00
2945;DHT22;1482;51.398;7.128;2023-11-21T02:16:11;9.10;1.00
2945;DHT22;1482;51.398;7.128;2023-11-21T02:18:38;9.10;1.00
2945;DHT22;1482;51.398;7.128;2023-11-21T02:21:05;9.10;1.00
2945;DHT22;1482;51.398;7.128;2023-11-21T02:23:30;9.10;1.00
2945;DHT22;1482;51.398;7.128;2023-11-21T02:25:56;9.10;1.00
2945;DHT22;1482;51.398;7.128;2023-11-21T02:28:22;9.10;1.00
2945;DHT22;1482;51.398;7.128;2023-11-21T02:30:51;9.10;1.00
2945;DHT22;1482;51.398;7.128;2023-11-21T02:33:21;9.10;1.00
2945;DHT22;1482;51.398;7.128;2023-11-21T02:35:47;9.10;1.00
2945;DHT22;1482;51.398;7.128;2023-11-21T02:38:13;9.10;1.00
2945;DHT22;1482;51.398;7.128;2023-11-21T02:40:39;9.10;1.00
2945;DHT22;1482;51.398;7.128;2023-11-21T02:43:04;9.10;1.00
2945;DHT22;1482;51.398;7.128;2023-11-21T02:45:31;9.10;1.00
2945;DHT22;1482;51.398;7.128;2023-11-21T02:47:57;9.10;1.00
2945;DHT22;1482;51.398;7.128;2023-11-21T02:50:23;9.10;1.00
2945;DHT22;1482;51.398;7.128;2023-11-21T02:52:49;9.10;1.00
2945;DHT22;1482;51.398;7.128;2023-11-21T02:55:14;9.10;1.00
2945;DHT22;1482;51.398;7.128;2023-11-21T02:57:40;9.10;1.00
2945;DHT22;1482;51.398;7.128;2023-11-21T03:00:06;9.10;1.00
2945;DHT22;1482;51.398;7.128;2023-11-21T03:02:41;9.10;1.00
2945;DHT22;1482;51.398;7.128;2023-11-21T03:05:08;9.10;1.00
2945;DHT22;1482;51.398;7.128;2023-11-21T03:07:37;9.20;1.00
2945;DHT22;1482;51.398;7.128;2023-11-21T03:10:03;9.20;1.00
2945;DHT22;1482;51.398;7.128;2023-11-21T03:12:29;9.20;1.00
2945;DHT22;1482;51.398;7.128;2023-11-21T03:14:55;9.20;1.00
2945;DHT22;1482;51.398;7.128;2023-11-21T03:17:21;9.20;1.00
2945;DHT22;1482;51.398;7.128;2023-11-21T03:19:46;9.20;1.00
2945;DHT22;1482;51.398;7.128;2023-11-21T03:22:13;9.20;1.00
2945;DHT22;1482;51.398;7.128;2023-11-21T03:24:38;9.20;1.00
2945;DHT22;1482;51.398;7.128;2023-11-21T03:27:04;9.10;1.00
2945;DHT22;1482;51.398;7.128;2023-11-21T03:29:30;9.10;1.00
2945;DHT22;1482;51.398;7.128;2023-11-21T03:31:55;9.10;1.00
2945;DHT22;1482;51.398;7.128;2023-11-21T03:34:26;9.10;1.00
2945;DHT22;1482;51.398;7.128;2023-11-21T03:36:52;9.20;1.00
2945;DHT22;1482;51.398;7.128;2023-11-21T03:39:19;9.20;1.00
2945;DHT22;1482;51.398;7.128;2023-11-21T03:41:44;9.20;1.00
2945;DHT22;1482;51.398;7.128;2023-11-21T03:44:10;9.20;1.00
2945;DHT22;1482;51.398;7.128;2023-11-21T03:46:36;9.20;1.00
2945;DHT22;1482;51.398;7.128;2023-11-21T03:49:01;9.20;1.00
2945;DHT22;1482;51.398;7.128;2023-11-21T03:51:27;9.10;1.00
2945;DHT22;1482;51.398;7.128;2023-11-21T03:53:52;9.20;1.00
2945;DHT22;1482;51.398;7.128;2023-11-21T03:56:19;9.20;1.00
2945;DHT22;1482;51.398;7.128;2023-11-21T03:58:46;9.20;1.00
2945;DHT22;1482;51.398;7.128;2023-11-21T04:01:11;9.20;1.00
2945;DHT22;1482;51.398;7.128;2023-11-21T04:03:37;9.20;1.00
2945;DHT22;1482;51.398;7.128;2023-11-21T04:06:02;9.20;1.00
2945;DHT22;1482;51.398;7.128;2023-11-21T04:08:28;9.20;1.00
2945;DHT22;1482;51.398;7.128;2023-11-21T04:10:53;9.30;1.00
2945;DHT22;1482;51.398;7.128;2023-11-21T04:13:20;9.30;1.00
2945;DHT22;1482;51.398;7.128;2023-11-21T04:15:45;9.20;1.00
2945;DHT22;1482;51.398;7.128;2023-11-21T04:18:11;9.30;1.00
2945;DHT22;1482;51.398;7.128;2023-11-21T04:20:36;9.30;1.00
2945;DHT22;1482;51.398;7.128;2023-11-21T04:23:02;9.30;1.00
2945;DHT22;1482;51.398;7.128;2023-11-21T04:25:28;9.20;1.00
2945;DHT22;1482;51.398;7.128;2023-11-21T04:27:54;9.20;1.00
2945;DHT22;1482;51.398;7.128;2023-11-21T04:30:19;9.20;1.00
2945;DHT22;1482;51.398;7.128;2023-11-21T04:32:46;9.20;1.00
2945;DHT22;1482;51.398;7.128;2023-11-21T04:35:11;9.20;1.00
2945;DHT22;1482;51.398;7.128;2023-11-21T04:37:37;9.20;1.00
2945;DHT22;1482;51.398;7.128;2023-11-21T04:40:03;9.20;1.00
2945;DHT22;1482;51.398;7.128;2023-11-21T04:42:34;9.10;99.90
2945;DHT22;1482;51.398;7.128;2023-11-21T04:45:00;9.10;99.90
2945;DHT22;1482;51.398;7.128;2023-11-21T04:47:26;9.10;99.90
2945;DHT22;1482;51.398;7.128;2023-11-21T04:49:52;9.10;99.90
2945;DHT22;1482;51.398;7.128;2023-11-21T04:52:17;9.10;99.90
2945;DHT22;1482;51.398;7.128;2023-11-21T04:54:44;9.00;1.00
2945;DHT22;1482;51.398;7.128;2023-11-21T04:57:09;9.10;99.90
2945;DHT22;1482;51.398;7.128;2023-11-21T04:59:35;9.10;99.90
2945;DHT22;1482;51.398;7.128;2023-11-21T05:02:01;9.10;99.90
2945;DHT22;1482;51.398;7.128;2023-11-21T05:04:26;9.00;99.90
2945;DHT22;1482;51.398;7.128;2023-11-21T05:06:52;9.00;99.90
2945;DHT22;1482;51.398;7.128;2023-11-21T05:09:18;9.00;99.90
2945;DHT22;1482;51.398;7.128;2023-11-21T05:11:43;9.00;99.90
2945;DHT22;1482;51.398;7.128;2023-11-21T05:14:09;9.00;1.00
2945;DHT22;1482;51.398;7.128;2023-11-21T05:16:35;9.00;1.00
2945;DHT22;1482;51.398;7.128;2023-11-21T05:19:00;9.00;1.00
2945;DHT22;1482;51.398;7.128;2023-11-21T05:21:30;9.10;1.00
2945;DHT22;1482;51.398;7.128;2023-11-21T05:23:58;9.00;1.00
2945;DHT22;1482;51.398;7.128;2023-11-21T05:26:24;9.00;1.00
2945;DHT22;1482;51.398;7.128;2023-11-21T05:28:49;9.00;1.00
2945;DHT22;1482;51.398;7.128;2023-11-21T05:31:15;9.00;1.00
2945;DHT22;1482;51.398;7.128;2023-11-21T05:33:41;9.00;1.00
2945;DHT22;1482;51.398;7.128;2023-11-21T05:36:07;8.90;1.00
2945;DHT22;1482;51.398;7.128;2023-11-21T05:38:33;8.90;1.00
2945;DHT22;1482;51.398;7.128;2023-11-21T05:40:59;8.90;1.00
2945;DHT22;1482;51.398;7.128;2023-11-21T05:43:24;8.90;1.00
2945;DHT22;1482;51.398;7.128;2023-11-21T05:45:50;8.90;1.00
2945;DHT22;1482;51.398;7.128;2023-11-21T05:48:15;8.90;1.00
2945;DHT22;1482;51.398;7.128;2023-11-21T05:50:41;8.90;1.00
2945;DHT22;1482;51.398;7.128;2023-11-21T05:53:06;8.90;1.00
2945;DHT22;1482;51.398;7.128;2023-11-21T05:55:32;8.90;1.00
2945;DHT22;1482;51.398;7.128;2023-11-21T05:57:58;9.00;1.00
2945;DHT22;1482;51.398;7.128;2023-11-21T06:00:24;9.00;1.00
2945;DHT22;1482;51.398;7.128;2023-11-21T06:02:52;9.00;1.00
2945;DHT22;1482;51.398;7.128;2023-11-21T06:05:22;9.00;1.00
2945;DHT22;1482;51.398;7.128;2023-11-21T06:07:52;9.00;1.00
2945;DHT22;1482;51.398;7.128;2023-11-21T06:10:20;9.10;1.00
2945;DHT22;1482;51.398;7.128;2023-11-21T06:12:46;9.10;1.00
2945;DHT22;1482;51.398;7.128;2023-11-21T06:15:12;9.10;1.00
2945;DHT22;1482;51.398;7.128;2023-11-21T06:17:42;9.20;1.00
2945;DHT22;1482;51.398;7.128;2023-11-21T06:20:09;9.10;1.00
2945;DHT22;1482;51.398;7.128;2023-11-21T06:22:37;9.20;1.00
2945;DHT22;1482;51.398;7.128;2023-11-21T06:25:03;9.20;1.00
2945;DHT22;1482;51.398;7.128;2023-11-21T06:27:39;9.20;1.00
2945;DHT22;1482;51.398;7.128;2023-11-21T06:30:05;9.20;1.00
2945;DHT22;1482;51.398;7.128;2023-11-21T06:32:32;9.20;1.00
2945;DHT22;1482;51.398;7.128;2023-11-21T06:34:57;9.30;1.00
2945;DHT22;1482;51.398;7.128;2023-11-21T06:37:29;9.30;1.00
2945;DHT22;1482;51.398;7.128;2023-11-21T06:39:55;9.30;1.00
2945;DHT22;1482;51.398;7.128;2023-11-21T06:42:22;9.30;1.00
2945;DHT22;1482;51.398;7.128;2023-11-21T06:44:48;9.30;1.00
2945;DHT22;1482;51.398;7.128;2023-11-21T06:47:14;9.30;1.00
2945;DHT22;1482;51.398;7.128;2023-11-21T06:49:42;9.40;1.00
2945;DHT22;1482;51.398;7.128;2023-11-21T06:52:08;9.40;1.00
2945;DHT22;1482;51.398;7.128;2023-11-21T06:54:33;9.40;1.00
2945;DHT22;1482;51.398;7.128;2023-11-21T06:57:00;9.40;1.00
2945;DHT22;1482;51.398;7.128;2023-11-21T06:59:25;9.40;1.00
2945;DHT22;1482;51.398;7.128;2023-11-21T07:01:53;9.40;1.00
2945;DHT22;1482;51.398;7.128;2023-11-21T07:04:19;9.50;1.00
2945;DHT22;1482;51.398;7.128;2023-11-21T07:06:45;9.50;1.00
2945;DHT22;1482;51.398;7.128;2023-11-21T07:09:11;9.50;1.00
2945;DHT22;1482;51.398;7.128;2023-11-21T07:11:37;9.50;1.00
2945;DHT22;1482;51.398;7.128;2023-11-21T07:14:04;9.50;1.00
2945;DHT22;1482;51.398;7.128;2023-11-21T07:16:34;9.60;1.00
2945;DHT22;1482;51.398;7.128;2023-11-21T07:19:03;9.60;99.90
2945;DHT22;1482;51.398;7.128;2023-11-21T07:21:31;9.70;99.90
2945;DHT22;1482;51.398;7.128;2023-11-21T07:23:58;9.70;99.90
2945;DHT22;1482;51.398;7.128;2023-11-21T07:26:23;9.70;99.90
2945;DHT22;1482;51.398;7.128;2023-11-21T07:28:50;9.80;99.90
2945;DHT22;1482;51.398;7.128;2023-11-21T07:31:15;9.90;99.90
2945;DHT22;1482;51.398;7.128;2023-11-21T07:33:41;10.00;99.90
2945;DHT22;1482;51.398;7.128;2023-11-21T07:36:07;10.00;99.90
2945;DHT22;1482;51.398;7.128;2023-11-21T07:38:33;10.10;99.90
2945;DHT22;1482;51.398;7.128;2023-11-21T07:40:58;10.20;99.90
2945;DHT22;1482;51.398;7.128;2023-11-21T07:43:26;10.30;99.90
2945;DHT22;1482;51.398;7.128;2023-11-21T07:45:52;10.30;99.90
2945;DHT22;1482;51.398;7.128;2023-11-21T07:48:17;10.50;99.90
2945;DHT22;1482;51.398;7.128;2023-11-21T07:50:43;10.60;99.90
2945;DHT22;1482;51.398;7.128;2023-11-21T07:53:12;10.80;99.90
2945;DHT22;1482;51.398;7.128;2023-11-21T07:55:40;11.00;99.90
2945;DHT22;1482;51.398;7.128;2023-11-21T07:58:05;11.20;99.90
2945;DHT22;1482;51.398;7.128;2023-11-21T08:00:31;11.30;99.90
2945;DHT22;1482;51.398;7.128;2023-11-21T08:02:56;11.40;99.90
2945;DHT22;1482;51.398;7.128;2023-11-21T08:05:22;11.40;99.90
2945;DHT22;1482;51.398;7.128;2023-11-21T08:07:47;11.40;99.90
2945;DHT22;1482;51.398;7.128;2023-11-21T08:10:13;11.50;99.90
2945;DHT22;1482;51.398;7.128;2023-11-21T08:12:39;11.60;99.90
2945;DHT22;1482;51.398;7.128;2023-11-21T08:15:05;11.70;99.90
2945;DHT22;1482;51.398;7.128;2023-11-21T08:17:31;11.70;99.90
2945;DHT22;1482;51.398;7.128;2023-11-21T08:19:58;11.80;99.90
2945;DHT22;1482;51.398;7.128;2023-11-21T08:22:23;11.90;99.90
2945;DHT22;1482;51.398;7.128;2023-11-21T08:24:50;11.90;99.90
2945;DHT22;1482;51.398;7.128;2023-11-21T08:27:16;11.80;99.90
2945;DHT22;1482;51.398;7.128;2023-11-21T08:29:42;11.80;99.90
2945;DHT22;1482;51.398;7.128;2023-11-21T08:32:07;11.70;99.90
2945;DHT22;1482;51.398;7.128;2023-11-21T08:34:33;11.60;99.90
2945;DHT22;1482;51.398;7.128;2023-11-21T08:36:59;11.50;99.90
2945;DHT22;1482;51.398;7.128;2023-11-21T08:39:24;11.40;99.90
2945;DHT22;1482;51.398;7.128;2023-11-21T08:41:50;11.40;99.90
2945;DHT22;1482;51.398;7.128;2023-11-21T08:44:16;11.30;99.90
2945;DHT22;1482;51.398;7.128;2023-11-21T08:46:44;11.20;99.90
2945;DHT22;1482;51.398;7.128;2023-11-21T08:49:11;11.10;99.90
2945;DHT22;1482;51.398;7.128;2023-11-21T08:51:37;11.00;99.90
2945;DHT22;1482;51.398;7.128;2023-11-21T08:54:03;10.90;99.90
2945;DHT22;1482;51.398;7.128;2023-11-21T08:56:33;10.90;99.90
2945;DHT22;1482;51.398;7.128;2023-11-21T08:58:59;10.90;99.90
2945;DHT22;1482;51.398;7.128;2023-11-21T09:01:30;10.80;99.90
2945;DHT22;1482;51.398;7.128;2023-11-21T09:03:57;10.80;99.90
2945;DHT22;1482;51.398;7.128;2023-11-21T09:06:23;10.80;99.90
2945;DHT22;1482;51.398;7.128;2023-11-21T09:08:49;10.80;99.90
2945;DHT22;1482;51.398;7.128;2023-11-21T09:11:15;10.80;99.90
2945;DHT22;1482;51.398;7.128;2023-11-21T09:13:40;10.80;99.90
2945;DHT22;1482;51.398;7.128;2023-11-21T09:16:06;10.80;99.90
2945;DHT22;1482;51.398;7.128;2023-11-21T09:18:32;10.80;99.90
2945;DHT22;1482;51.398;7.128;2023-11-21T09:20:57;10.80;99.90
2945;DHT22;1482;51.398;7.128;2023-11-21T09:23:24;10.80;99.90
2945;DHT22;1482;51.398;7.128;2023-11-21T09:25:49;10.90;99.90
2945;DHT22;1482;51.398;7.128;2023-11-21T09:28:17;10.90;99.90
2945;DHT22;1482;51.398;7.128;2023-11-21T09:30:43;10.90;99.90
2945;DHT22;1482;51.398;7.128;2023-11-21T09:33:09;10.90;99.90
2945;DHT22;1482;51.398;7.128;2023-11-21T09:35:37;10.90;99.90
2945;DHT22;1482;51.398;7.128;2023-11-21T09:38:03;10.90;99.90
2945;DHT22;1482;51.398;7.128;2023-11-21T09:40:35;11.00;99.90
2945;DHT22;1482;51.398;7.128;2023-11-21T09:43:02;11.00;99.90
2945;DHT22;1482;51.398;7.128;2023-11-21T09:45:35;11.10;99.90
2945;DHT22;1482;51.398;7.128;2023-11-21T09:48:01;11.10;99.90
2945;DHT22;1482;51.398;7.128;2023-11-21T09:50:27;11.10;99.90
2945;DHT22;1482;51.398;7.128;2023-11-21T09:55:42;11.30;99.90
2945;DHT22;1482;51.398;7.128;2023-11-21T09:58:09;11.30;99.90
2945;DHT22;1482;51.398;7.128;2023-11-21T10:00:40;11.20;99.90
2945;DHT22;1482;51.398;7.128;2023-11-21T10:03:05;11.20;99.90
2945;DHT22;1482;51.398;7.128;2023-11-21T10:05:32;11.20;99.90
2945;DHT22;1482;51.398;7.128;2023-11-21T10:07:59;11.30;99.90
2945;DHT22;1482;51.398;7.128;2023-11-21T10:10:25;11.30;99.90
2945;DHT22;1482;51.398;7.128;2023-11-21T10:12:56;11.40;99.90
2945;DHT22;1482;51.398;7.128;2023-11-21T10:15:23;11.40;99.90
2945;DHT22;1482;51.398;7.128;2023-11-21T10:17:52;11.40;99.90
2945;DHT22;1482;51.398;7.128;2023-11-21T10:20:19;11.40;99.90
2945;DHT22;1482;51.398;7.128;2023-11-21T10:22:45;11.50;99.90
2945;DHT22;1482;51.398;7.128;2023-11-21T10:25:12;11.50;99.90
2945;DHT22;1482;51.398;7.128;2023-11-21T10:27:40;11.50;99.90
2945;DHT22;1482;51.398;7.128;2023-11-21T10:30:09;11.50;99.90
2945;DHT22;1482;51.398;7.128;2023-11-21T10:32:41;11.50;99.90
2945;DHT22;1482;51.398;7.128;2023-11-21T10:35:08;11.50;99.90
2945;DHT22;1482;51.398;7.128;2023-11-21T10:37:37;11.50;99.90
2945;DHT22;1482;51.398;7.128;2023-11-21T10:40:10;11.50;99.90
2945;DHT22;1482;51.398;7.128;2023-11-21T10:42:39;11.60;99.90
2945;DHT22;1482;51.398;7.128;2023-11-21T10:45:06;11.70;99.90
2945;DHT22;1482;51.398;7.128;2023-11-21T10:47:42;11.80;99.90
2945;DHT22;1482;51.398;7.128;2023-11-21T10:50:09;11.90;99.90
2945;DHT22;1482;51.398;7.128;2023-11-21T10:52:37;12.00;99.90
2945;DHT22;1482;51.398;7.128;2023-11-21T10:55:16;12.10;99.90
2945;DHT22;1482;51.398;7.128;2023-11-21T10:57:44;12.10;99.90
2945;DHT22;1482;51.398;7.128;2023-11-21T11:00:10;12.10;99.90
2945;DHT22;1482;51.398;7.128;2023-11-21T11:02:39;12.00;99.90
2945;DHT22;1482;51.398;7.128;2023-11-21T11:05:05;12.10;99.90
2945;DHT22;1482;51.398;7.128;2023-11-21T11:07:32;12.10;99.90
2945;DHT22;1482;51.398;7.128;2023-11-21T11:09:59;12.20;99.90
2945;DHT22;1482;51.398;7.128;2023-11-21T11:12:25;12.20;99.90
2945;DHT22;1482;51.398;7.128;2023-11-21T11:14:52;12.30;99.90
2945;DHT22;1482;51.398;7.128;2023-11-21T11:17:19;12.30;99.90
2945;DHT22;1482;51.398;7.128;2023-11-21T11:19:48;12.30;99.90
2945;DHT22;1482;51.398;7.128;2023-11-21T11:36:28;12.70;99.90
2945;DHT22;1482;51.398;7.128;2023-11-21T11:38:55;12.70;99.90
2945;DHT22;1482;51.398;7.128;2023-11-21T11:41:26;12.70;99.90
2945;DHT22;1482;51.398;7.128;2023-11-21T11:43:56;12.70;99.90
2945;DHT22;1482;51.398;7.128;2023-11-21T11:46:42;12.80;99.90
2945;DHT22;1482;51.398;7.128;2023-11-21T11:49:10;12.70;99.90
2945;DHT22;1482;51.398;7.128;2023-11-21T11:51:36;12.70;99.90
2945;DHT22;1482;51.398;7.128;2023-11-21T11:54:02;12.70;99.90
2945;DHT22;1482;51.398;7.128;2023-11-21T11:56:30;12.80;99.90
2945;DHT22;1482;51.398;7.128;2023-11-21T11:58:59;12.80;99.90
2945;DHT22;1482;51.398;7.128;2023-11-21T12:01:26;12.90;99.90
2945;DHT22;1482;51.398;7.128;2023-11-21T12:06:40;13.00;99.90
2945;DHT22;1482;51.398;7.128;2023-11-21T12:09:06;13.00;99.90
2945;DHT22;1482;51.398;7.128;2023-11-21T12:11:32;13.00;99.90
2945;DHT22;1482;51.398;7.128;2023-11-21T12:13:59;13.00;99.90
2945;DHT22;1482;51.398;7.128;2023-11-21T12:16:25;13.00;99.90
2945;DHT22;1482;51.398;7.128;2023-11-21T12:18:53;13.00;99.90
2945;DHT22;1482;51.398;7.128;2023-11-21T12:21:20;13.00;99.90
2945;DHT22;1482;51.398;7.128;2023-11-21T12:23:46;12.90;99.90
2945;DHT22;1482;51.398;7.128;2023-11-21T12:26:13;12.90;99.90
2945;DHT22;1482;51.398;7.128;2023-11-21T12:28:39;12.70;99.90
2945;DHT22;1482;51.398;7.128;2023-11-21T12:31:06;12.70;99.90
2945;DHT22;1482;51.398;7.128;2023-11-21T12:33:33;12.60;99.90
2945;DHT22;1482;51.398;7.128;2023-11-21T12:35:58;12.60;99.90
2945;DHT22;1482;51.398;7.128;2023-11-21T12:38:24;12.50;99.90
2945;DHT22;1482;51.398;7.128;2023-11-21T12:40:50;12.30;99.90
2945;DHT22;1482;51.398;7.128;2023-11-21T12:43:17;12.20;99.90
2945;DHT22;1482;51.398;7.128;2023-11-21T12:45:43;12.10;99.90
2945;DHT22;1482;51.398;7.128;2023-11-21T12:48:09;12.10;99.90
2945;DHT22;1482;51.398;7.128;2023-11-21T12:50:37;12.00;99.90
2945;DHT22;1482;51.398;7.128;2023-11-21T12:53:08;11.90;99.90
2945;DHT22;1482;51.398;7.128;2023-11-21T12:55:35;11.80;99.90
2945;DHT22;1482;51.398;7.128;2023-11-21T12:58:06;11.70;99.90
2945;DHT22;1482;51.398;7.128;2023-11-21T13:00:37;11.50;99.90
2945;DHT22;1482;51.398;7.128;2023-11-21T13:03:06;11.40;99.90
2945;DHT22;1482;51.398;7.128;2023-11-21T13:05:39;11.40;99.90
2945;DHT22;1482;51.398;7.128;2023-11-21T13:08:07;11.30;99.90
2945;DHT22;1482;51.398;7.128;2023-11-21T13:10:35;11.10;99.90
2945;DHT22;1482;51.398;7.128;2023-11-21T13:13:04;11.00;99.90
2945;DHT22;1482;51.398;7.128;2023-11-21T13:15:39;11.10;99.90
2945;DHT22;1482;51.398;7.128;2023-11-21T13:18:06;11.20;99.90
2945;DHT22;1482;51.398;7.128;2023-11-21T13:20:32;11.10;99.90
2945;DHT22;1482;51.398;7.128;2023-11-21T13:22:59;11.10;99.90
2945;DHT22;1482;51.398;7.128;2023-11-21T13:25:29;11.10;99.90
2945;DHT22;1482;51.398;7.128;2023-11-21T13:27:57;11.10;99.90
2945;DHT22;1482;51.398;7.128;2023-11-21T13:30:24;11.10;99.90
2945;DHT22;1482;51.398;7.128;2023-11-21T13:32:54;11.00;99.90
2945;DHT22;1482;51.398;7.128;2023-11-21T13:35:23;11.00;99.90
2945;DHT22;1482;51.398;7.128;2023-11-21T13:38:04;10.90;99.90
2945;DHT22;1482;51.398;7.128;2023-11-21T13:40:31;10.80;99.90
2945;DHT22;1482;51.398;7.128;2023-11-21T13:43:00;10.60;99.90
2945;DHT22;1482;51.398;7.128;2023-11-21T13:45:29;10.50;1.00
2945;DHT22;1482;51.398;7.128;2023-11-21T13:47:56;10.50;1.00
2945;DHT22;1482;51.398;7.128;2023-11-21T13:50:25;10.60;1.00
2945;DHT22;1482;51.398;7.128;2023-11-21T13:53:01;10.50;1.00
2945;DHT22;1482;51.398;7.128;2023-11-21T13:55:44;10.40;1.00
2945;DHT22;1482;51.398;7.128;2023-11-21T13:58:11;10.30;1.00
2945;DHT22;1482;51.398;7.128;2023-11-21T14:00:42;10.30;1.00
2945;DHT22;1482;51.398;7.128;2023-11-21T14:03:12;10.30;22.80
2945;DHT22;1482;51.398;7.128;2023-11-21T14:05:48;10.30;61.80
2945;DHT22;1482;51.398;7.128;2023-11-21T14:08:20;10.30;1.00
2945;DHT22;1482;51.398;7.128;2023-11-21T14:10:49;10.30;32.70
2945;DHT22;1482;51.398;7.128;2023-11-21T14:13:21;10.30;99.90
2945;DHT22;1482;51.398;7.128;2023-11-21T14:15:49;10.40;99.90
2945;DHT22;1482;51.398;7.128;2023-11-21T14:18:17;10.40;99.90
2945;DHT22;1482;51.398;7.128;2023-11-21T14:20:51;10.30;99.90
2945;DHT22;1482;51.398;7.128;2023-11-21T14:23:16;10.30;13.70
2945;DHT22;1482;51.398;7.128;2023-11-21T14:25:43;10.30;1.00
2945;DHT22;1482;51.398;7.128;2023-11-21T14:28:09;10.20;11.10
2945;DHT22;1482;51.398;7.128;2023-11-21T14:30:37;10.20;99.90
2945;DHT22;1482;51.398;7.128;2023-11-21T14:33:05;10.20;99.90
2945;DHT22;1482;51.398;7.128;2023-11-21T14:35:31;10.10;34.30
2945;DHT22;1482;51.398;7.128;2023-11-21T14:37:58;10.00;99.90
2945;DHT22;1482;51.398;7.128;2023-11-21T14:40:24;10.10;99.90
2945;DHT22;1482;51.398;7.128;2023-11-21T14:42:51;10.10;99.90
2945;DHT22;1482;51.398;7.128;2023-11-21T14:45:21;9.90;99.90
2945;DHT22;1482;51.398;7.128;2023-11-21T14:47:48;9.80;99.90
2945;DHT22;1482;51.398;7.128;2023-11-21T14:50:30;9.70;99.90
2945;DHT22;1482;51.398;7.128;2023-11-21T14:53:02;9.80;99.90
2945;DHT22;1482;51.398;7.128;2023-11-21T14:55:34;9.80;99.90
2945;DHT22;1482;51.398;7.128;2023-11-21T14:58:22;9.70;99.90
2945;DHT22;1482;51.398;7.128;2023-11-21T15:00:57;9.80;99.90
2945;DHT22;1482;51.398;7.128;2023-11-21T15:03:27;9.70;99.90
2945;DHT22;1482;51.398;7.128;2023-11-21T15:06:03;9.70;99.90
2945;DHT22;1482;51.398;7.128;2023-11-21T15:08:49;9.70;70.10
2945;DHT22;1482;51.398;7.128;2023-11-21T15:11:20;9.60;65.90
2945;DHT22;1482;51.398;7.128;2023-11-21T15:13:50;9.60;59.40
2945;DHT22;1482;51.398;7.128;2023-11-21T15:16:17;9.50;83.30
2945;DHT22;1482;51.398;7.128;2023-11-21T15:18:44;9.40;84.90
2945;DHT22;1482;51.398;7.128;2023-11-21T15:21:09;9.40;93.60
2945;DHT22;1482;51.398;7.128;2023-11-21T15:23:37;9.40;3.30
2945;DHT22;1482;51.398;7.128;2023-11-21T15:26:04;9.20;1.00
2945;DHT22;1482;51.398;7.128;2023-11-21T15:28:30;9.10;1.00
2945;DHT22;1482;51.398;7.128;2023-11-21T15:30:57;9.20;1.00
2945;DHT22;1482;51.398;7.128;2023-11-21T15:33:23;9.20;1.00
2945;DHT22;1482;51.398;7.128;2023-11-21T15:35:48;9.20;1.00
2945;DHT22;1482;51.398;7.128;2023-11-21T15:38:14;9.20;1.00
2945;DHT22;1482;51.398;7.128;2023-11-21T15:40:40;9.10;1.00
2945;DHT22;1482;51.398;7.128;2023-11-21T15:43:05;9.20;1.00
2945;DHT22;1482;51.398;7.128;2023-11-21T15:45:32;9.10;1.00
2945;DHT22;1482;51.398;7.128;2023-11-21T15:47:58;9.10;1.00
2945;DHT22;1482;51.398;7.128;2023-11-21T15:50:25;9.10;1.00
2945;DHT22;1482;51.398;7.128;2023-11-21T15:52:51;9.20;1.00
2945;DHT22;1482;51.398;7.128;2023-11-21T15:55:17;9.20;1.00
2945;DHT22;1482;51.398;7.128;2023-11-21T15:57:43;9.20;1.00
2945;DHT22;1482;51.398;7.128;2023-11-21T16:00:09;9.20;1.00
2945;DHT22;1482;51.398;7.128;2023-11-21T16:02:45;9.10;1.00
2945;DHT22;1482;51.398;7.128;2023-11-21T16:05:10;9.10;1.00
2945;DHT22;1482;51.398;7.128;2023-11-21T16:07:42;9.10;1.00
2945;DHT22;1482;51.398;7.128;2023-11-21T16:10:09;9.00;1.00
2945;DHT22;1482;51.398;7.128;2023-11-21T16:12:41;8.90;1.00
2945;DHT22;1482;51.398;7.128;2023-11-21T16:15:07;8.90;1.00
2945;DHT22;1482;51.398;7.128;2023-11-21T16:17:37;8.90;1.00
2945;DHT22;1482;51.398;7.128;2023-11-21T16:20:04;8.80;1.00
2945;DHT22;1482;51.398;7.128;2023-11-21T16:22:34;8.70;1.00
2945;DHT22;1482;51.398;7.128;2023-11-21T16:25:00;8.70;1.00
2945;DHT22;1482;51.398;7.128;2023-11-21T16:27:26;8.60;1.00
2945;DHT22;1482;51.398;7.128;2023-11-21T16:29:52;8.50;13.50
2945;DHT22;1482;51.398;7.128;2023-11-21T16:32:17;8.50;99.90
2945;DHT22;1482;51.398;7.128;2023-11-21T16:34:43;8.30;99.90
2945;DHT22;1482;51.398;7.128;2023-11-21T16:37:10;8.30;99.90
2945;DHT22;1482;51.398;7.128;2023-11-21T16:39:36;8.20;99.90